Time;durP1;ratioP1;P1;durP2;ratioP2;P2;SDS_P1;SDS_P2;PMS_P1;PMS_P2;Temp;Humidity;BMP_temperature;BMP_pressure;BME280_temperature;BME280_humidity;BME280_pressure;Samples;Min_cycle;Max_cycle;Signal;HPM_P1;HPM_P2
2022/03/30 00:00:22;;;;;;;34.58;16.65;;;;;;;;;;5008538;28;99372;-72
2022/03/30 00:02:49;;;;;;;33.53;17.40;;;;;;;;;;5009023;28;98541;-71
2022/03/30 00:05:15;;;;;;;32.83;17.00;;;;;;;;;;5008141;28;99420;-71
2022/03/30 00:07:42;;;;;;;29.40;18.13;;;;;;;;;;5007931;28;100193;-72
2022/03/30 00:10:08;;;;;;;41.10;18.83;;;;;;;;;;5008798;28;98789;-71
2022/03/30 00:12:35;;;;;;;36.55;18.00;;;;;;;;;;5008242;28;100082;-71
2022/03/30 00:15:01;;;;;;;40.75;18.85;;;;;;;;;;5008277;28;100233;-72
2022/03/30 00:17:27;;;;;;;39.20;17.10;;;;;;;;;;5008272;28;98544;-71
2022/03/30 00:19:54;;;;;;;31.45;17.35;;;;;;;;;;5010071;28;100277;-72
2022/03/30 00:22:20;;;;;;;32.83;16.73;;;;;;;;;;5007658;28;99335;-72
2022/03/30 00:24:47;;;;;;;28.90;17.73;;;;;;;;;;5007821;28;100319;-71
2022/03/30 00:27:13;;;;;;;33.03;17.85;;;;;;;;;;5007786;28;99520;-71
2022/03/30 00:29:40;;;;;;;36.92;17.70;;;;;;;;;;5008348;28;98537;-71
2022/03/30 00:32:06;;;;;;;29.83;16.85;;;;;;;;;;5007622;28;99060;-71
2022/03/30 00:34:33;;;;;;;41.55;18.40;;;;;;;;;;5007844;28;100025;-71
2022/03/30 00:36:59;;;;;;;40.45;18.17;;;;;;;;;;5008782;28;97858;-71
2022/03/30 00:39:25;;;;;;;38.72;17.38;;;;;;;;;;5006822;28;99297;-71
2022/03/30 00:41:52;;;;;;;41.88;18.38;;;;;;;;;;5011210;28;99255;-71
2022/03/30 00:44:19;;;;;;;42.13;19.30;;;;;;;;;;5007380;28;100244;-71
2022/03/30 00:46:50;;;;;;;30.13;17.30;;;;;;;;;;5007295;28;99288;-71
2022/03/30 00:49:16;;;;;;;30.73;16.30;;;;;;;;;;5007719;28;99033;-71
2022/03/30 00:51:43;;;;;;;38.85;18.02;;;;;;;;;;5007998;28;99219;-71
2022/03/30 00:54:09;;;;;;;39.40;18.10;;;;;;;;;;5006391;28;100178;-71
2022/03/30 00:56:37;;;;;;;43.15;17.17;;;;;;;;;;5008043;28;98956;-71
2022/03/30 00:59:07;;;;;;;37.78;18.80;;;;;;;;;;5008053;28;100060;-71
2022/03/30 01:01:34;;;;;;;34.03;17.30;;;;;;;;;;5010628;28;100126;-71
2022/03/30 01:04:04;;;;;;;34.47;17.65;;;;;;;;;;5007892;28;99267;-71
2022/03/30 01:06:31;;;;;;;30.33;16.83;;;;;;;;;;5007471;28;99884;-71
2022/03/30 01:08:57;;;;;;;35.47;18.98;;;;;;;;;;5006271;28;99790;-71
2022/03/30 01:11:25;;;;;;;33.65;17.83;;;;;;;;;;5007699;28;98622;-71
2022/03/30 01:13:51;;;;;;;34.08;17.42;;;;;;;;;;5006601;28;100232;-71
2022/03/30 01:16:29;;;;;;;49.08;17.98;;;;;;;;;;5007481;28;98539;-71
2022/03/30 01:19:06;;;;;;;34.47;17.35;;;;;;;;;;5007544;28;99240;-71
2022/03/30 01:21:33;;;;;;;38.05;17.20;;;;;;;;;;5006405;28;100022;-71
2022/03/30 01:24:00;;;;;;;31.92;15.02;;;;;;;;;;5010970;28;98539;-71
2022/03/30 01:26:26;;;;;;;31.30;17.50;;;;;;;;;;5007755;28;98628;-71
2022/03/30 01:28:53;;;;;;;33.33;17.20;;;;;;;;;;5006960;28;98484;-71
2022/03/30 01:34:05;;;;;;;35.97;16.73;;;;;;;;;;5006984;28;100195;-71
2022/03/30 01:36:31;;;;;;;33.00;18.55;;;;;;;;;;5006585;28;98602;-71
2022/03/30 01:38:58;;;;;;;35.47;17.92;;;;;;;;;;5007443;28;100002;-71
2022/03/30 01:41:24;;;;;;;36.70;18.45;;;;;;;;;;5007146;28;99185;-71
2022/03/30 01:43:50;;;;;;;34.80;16.88;;;;;;;;;;5006897;28;98590;-71
2022/03/30 01:46:17;;;;;;;40.47;17.15;;;;;;;;;;5010074;28;99139;-71
2022/03/30 01:48:43;;;;;;;29.88;16.50;;;;;;;;;;5007654;28;98950;-71
2022/03/30 01:51:10;;;;;;;29.17;16.70;;;;;;;;;;5008823;28;99170;-71
2022/03/30 01:53:36;;;;;;;38.95;16.80;;;;;;;;;;5010439;28;100651;-71
2022/03/30 01:56:02;;;;;;;48.75;18.67;;;;;;;;;;5010215;28;99104;-71
2022/03/30 01:58:29;;;;;;;31.70;17.83;;;;;;;;;;5010060;28;100171;-71
2022/03/30 02:00:57;;;;;;;39.28;17.88;;;;;;;;;;5010081;28;100505;-71
2022/03/30 02:03:25;;;;;;;46.95;18.55;;;;;;;;;;5010115;28;98574;-71
2022/03/30 02:05:52;;;;;;;28.45;15.82;;;;;;;;;;5010637;28;99279;-71
2022/03/30 02:08:19;;;;;;;32.97;17.42;;;;;;;;;;5012928;28;100434;-71
2022/03/30 02:10:45;;;;;;;35.15;16.80;;;;;;;;;;5009665;28;100036;-71
2022/03/30 02:13:12;;;;;;;39.45;18.88;;;;;;;;;;5009800;28;99639;-71
2022/03/30 02:15:38;;;;;;;47.88;18.92;;;;;;;;;;5010873;28;97861;-71
2022/03/30 02:18:05;;;;;;;37.45;17.25;;;;;;;;;;5009421;28;99585;-71
2022/03/30 02:20:32;;;;;;;37.60;17.15;;;;;;;;;;5010133;28;99424;-71
2022/03/30 02:22:58;;;;;;;30.60;16.63;;;;;;;;;;5009898;28;99273;-71
2022/03/30 02:25:26;;;;;;;43.55;18.60;;;;;;;;;;5009313;28;100714;-71
2022/03/30 02:27:53;;;;;;;31.50;17.55;;;;;;;;;;5009586;28;100364;-71
2022/03/30 02:30:20;;;;;;;34.08;17.85;;;;;;;;;;5013490;28;99704;-71
2022/03/30 02:32:47;;;;;;;38.03;18.38;;;;;;;;;;5009222;28;100349;-71
2022/03/30 02:35:14;;;;;;;32.95;16.15;;;;;;;;;;5009984;28;98508;-71
2022/03/30 02:37:41;;;;;;;32.03;16.90;;;;;;;;;;5010039;28;100226;-71
2022/03/30 02:40:07;;;;;;;28.10;16.65;;;;;;;;;;5009615;28;99619;-71
2022/03/30 02:42:34;;;;;;;45.10;18.38;;;;;;;;;;5009449;28;99247;-71
2022/03/30 02:45:00;;;;;;;41.78;18.73;;;;;;;;;;5009934;28;100198;-71
2022/03/30 02:50:12;;;;;;;29.45;15.95;;;;;;;;;;5010220;28;98550;-71
2022/03/30 02:52:38;;;;;;;39.15;17.83;;;;;;;;;;5012023;28;100055;-71
2022/03/30 02:55:05;;;;;;;31.08;16.42;;;;;;;;;;5009676;28;98585;-71
2022/03/30 02:57:31;;;;;;;42.08;17.85;;;;;;;;;;5009435;28;100022;-69
2022/03/30 02:59:57;;;;;;;30.95;16.65;;;;;;;;;;5008736;28;99206;-70
2022/03/30 03:02:24;;;;;;;36.17;16.95;;;;;;;;;;5009461;28;99244;-70
2022/03/30 03:04:50;;;;;;;31.05;16.70;;;;;;;;;;5010200;28;100451;-70
2022/03/30 03:07:17;;;;;;;39.90;17.88;;;;;;;;;;5008068;28;100134;-70
2022/03/30 03:09:43;;;;;;;30.02;17.38;;;;;;;;;;5009519;28;98652;-70
2022/03/30 03:12:09;;;;;;;33.20;17.58;;;;;;;;;;5012093;28;99391;-70
2022/03/30 03:14:36;;;;;;;39.80;18.15;;;;;;;;;;5008690;28;98514;-70
2022/03/30 03:17:03;;;;;;;32.70;16.95;;;;;;;;;;5009574;28;100061;-70
2022/03/30 03:19:29;;;;;;;33.53;18.10;;;;;;;;;;5008622;28;99493;-70
2022/03/30 03:21:56;;;;;;;32.72;18.15;;;;;;;;;;5008929;28;99326;-70
2022/03/30 03:24:22;;;;;;;27.00;15.40;;;;;;;;;;5009293;28;99179;-70
2022/03/30 03:26:51;;;;;;;49.40;18.17;;;;;;;;;;5008933;28;100209;-70
2022/03/30 03:29:17;;;;;;;28.02;16.48;;;;;;;;;;5008792;28;97844;-70
2022/03/30 03:31:43;;;;;;;34.10;17.00;;;;;;;;;;5009471;28;98505;-69
2022/03/30 03:34:10;;;;;;;33.10;17.60;;;;;;;;;;5011883;28;100277;-69
2022/03/30 03:36:36;;;;;;;37.22;17.58;;;;;;;;;;5008084;28;100143;-70
2022/03/30 03:39:02;;;;;;;34.63;16.90;;;;;;;;;;5009177;28;100138;-69
2022/03/30 03:41:29;;;;;;;37.33;17.60;;;;;;;;;;5008362;28;99051;-69
2022/03/30 03:43:55;;;;;;;30.02;15.95;;;;;;;;;;5008914;28;99968;-69
2022/03/30 03:46:22;;;;;;;40.92;17.02;;;;;;;;;;5008444;28;100499;-70
2022/03/30 03:48:51;;;;;;;42.92;17.90;;;;;;;;;;5007897;28;98946;-70
2022/03/30 03:51:18;;;;;;;34.85;17.15;;;;;;;;;;5008579;28;100001;-70
2022/03/30 03:53:44;;;;;;;35.83;16.77;;;;;;;;;;5009064;28;99557;-70
2022/03/30 03:56:10;;;;;;;33.35;17.65;;;;;;;;;;5011166;28;99056;-70
2022/03/30 03:58:37;;;;;;;35.55;18.85;;;;;;;;;;5008475;28;100203;-71
2022/03/30 04:01:03;;;;;;;28.50;16.52;;;;;;;;;;5008560;28;99292;-70
2022/03/30 04:03:29;;;;;;;35.72;17.33;;;;;;;;;;5007766;28;100670;-70
2022/03/30 04:05:56;;;;;;;34.20;18.08;;;;;;;;;;5008303;28;100376;-70
2022/03/30 04:08:22;;;;;;;31.50;16.23;;;;;;;;;;5008434;28;99039;-71
2022/03/30 04:10:49;;;;;;;32.95;17.95;;;;;;;;;;5008398;28;99479;-70
2022/03/30 04:13:15;;;;;;;32.35;15.73;;;;;;;;;;5007609;28;99406;-70
2022/03/30 04:15:41;;;;;;;48.97;16.90;;;;;;;;;;5008742;28;99109;-70
2022/03/30 04:18:08;;;;;;;34.95;16.52;;;;;;;;;;5010844;28;100247;-71
2022/03/30 04:20:34;;;;;;;32.28;17.58;;;;;;;;;;5008709;28;98535;-70
2022/03/30 04:23:01;;;;;;;35.55;16.08;;;;;;;;;;5008545;28;99790;-70
2022/03/30 04:25:27;;;;;;;45.53;18.27;;;;;;;;;;5007017;28;101372;-70
2022/03/30 04:27:54;;;;;;;32.72;16.15;;;;;;;;;;5008492;28;99047;-70
2022/03/30 04:30:21;;;;;;;27.20;14.98;;;;;;;;;;5008160;28;99032;-70
2022/03/30 04:32:48;;;;;;;37.08;18.35;;;;;;;;;;5007220;28;100307;-70
2022/03/30 04:35:18;;;;;;;34.60;16.25;;;;;;;;;;5007918;28;98557;-70
2022/03/30 04:37:44;;;;;;;36.67;17.23;;;;;;;;;;5007983;28;100081;-70
2022/03/30 04:40:11;;;;;;;40.55;17.13;;;;;;;;;;5010565;28;100455;-70
2022/03/30 04:42:37;;;;;;;37.10;16.95;;;;;;;;;;5008534;28;99515;-70
2022/03/30 04:45:04;;;;;;;37.88;17.80;;;;;;;;;;5007001;28;100455;-69
2022/03/30 04:47:32;;;;;;;45.92;18.02;;;;;;;;;;5007529;28;98529;-69
2022/03/30 04:49:58;;;;;;;30.85;16.70;;;;;;;;;;5007170;28;100056;-70
2022/03/30 04:52:25;;;;;;;36.72;18.27;;;;;;;;;;5006931;28;100188;-70
2022/03/30 04:54:51;;;;;;;29.45;16.25;;;;;;;;;;5007944;28;98876;-69
2022/03/30 04:57:17;;;;;;;43.72;19.00;;;;;;;;;;5007649;28;99207;-69
2022/03/30 04:59:44;;;;;;;35.80;16.85;;;;;;;;;;5007243;28;100239;-69
2022/03/30 05:02:10;;;;;;;35.75;16.98;;;;;;;;;;5010063;28;98634;-70
2022/03/30 05:04:37;;;;;;;35.85;16.85;;;;;;;;;;5007849;28;99488;-70
2022/03/30 05:07:03;;;;;;;35.72;17.17;;;;;;;;;;5007801;28;97809;-70
2022/03/30 05:09:29;;;;;;;31.02;17.25;;;;;;;;;;5007245;28;98524;-70
2022/03/30 05:11:56;;;;;;;41.60;19.48;;;;;;;;;;5007495;28;100273;-70
2022/03/30 05:14:22;;;;;;;33.55;17.58;;;;;;;;;;5006194;28;99750;-70
2022/03/30 05:16:48;;;;;;;30.45;16.67;;;;;;;;;;5007497;28;101089;-70
2022/03/30 05:19:15;;;;;;;32.65;17.60;;;;;;;;;;5006893;28;99441;-70
2022/03/30 05:21:41;;;;;;;33.83;17.65;;;;;;;;;;5010336;28;98484;-70
2022/03/30 05:24:08;;;;;;;35.58;18.15;;;;;;;;;;5007378;28;100267;-69
2022/03/30 05:26:34;;;;;;;32.05;17.35;;;;;;;;;;5010150;28;98512;-69
2022/03/30 05:29:00;;;;;;;39.75;17.90;;;;;;;;;;5010511;28;99711;-70
2022/03/30 05:31:27;;;;;;;41.28;17.45;;;;;;;;;;5010798;28;99520;-69
2022/03/30 05:33:53;;;;;;;31.48;16.42;;;;;;;;;;5011211;28;98873;-69
2022/03/30 05:36:20;;;;;;;31.63;17.20;;;;;;;;;;5009661;28;100109;-70
2022/03/30 05:38:48;;;;;;;28.80;17.13;;;;;;;;;;5010525;28;100401;-70
2022/03/30 05:41:15;;;;;;;32.38;17.55;;;;;;;;;;5010380;28;98637;-70
2022/03/30 05:43:42;;;;;;;33.88;18.27;;;;;;;;;;5014294;28;99143;-70
2022/03/30 05:46:08;;;;;;;41.20;17.05;;;;;;;;;;5010803;28;98545;-69
2022/03/30 05:48:35;;;;;;;36.95;18.27;;;;;;;;;;5010228;28;99027;-69
2022/03/30 05:51:01;;;;;;;33.40;18.05;;;;;;;;;;5010473;28;99472;-69
2022/03/30 05:53:28;;;;;;;41.58;17.38;;;;;;;;;;5010512;28;99003;-70
2022/03/30 05:55:57;;;;;;;35.78;18.23;;;;;;;;;;5011070;28;99227;-69
2022/03/30 05:58:23;;;;;;;30.10;16.55;;;;;;;;;;5009614;28;100365;-70
2022/03/30 06:00:53;;;;;;;34.00;18.73;;;;;;;;;;5010387;28;99268;-70
2022/03/30 06:03:19;;;;;;;44.63;18.40;;;;;;;;;;5009346;28;99940;-70
2022/03/30 06:05:46;;;;;;;39.88;17.80;;;;;;;;;;5013588;28;100208;-70
2022/03/30 06:08:12;;;;;;;37.17;19.80;;;;;;;;;;5010018;28;99577;-70
2022/03/30 06:10:39;;;;;;;35.67;18.95;;;;;;;;;;5009698;28;100245;-70
2022/03/30 06:13:06;;;;;;;39.95;19.95;;;;;;;;;;5010442;28;98565;-71
2022/03/30 06:15:33;;;;;;;41.80;19.80;;;;;;;;;;5010158;28;100426;-69
2022/03/30 06:18:00;;;;;;;34.47;18.80;;;;;;;;;;5009096;28;99528;-71
2022/03/30 06:20:26;;;;;;;39.53;18.98;;;;;;;;;;5010655;28;98344;-71
2022/03/30 06:22:53;;;;;;;44.33;19.50;;;;;;;;;;5010440;28;98637;-71
2022/03/30 06:25:24;;;;;;;50.90;20.08;;;;;;;;;;5008683;28;100457;-71
2022/03/30 06:27:51;;;;;;;50.03;19.92;;;;;;;;;;5013189;28;99267;-71
2022/03/30 06:30:17;;;;;;;40.90;19.25;;;;;;;;;;5009274;28;99384;-71
2022/03/30 06:32:46;;;;;;;29.65;18.83;;;;;;;;;;5010387;28;98962;-71
2022/03/30 06:35:13;;;;;;;35.88;16.58;;;;;;;;;;5009688;28;99212;-71
2022/03/30 06:37:39;;;;;;;39.08;17.02;;;;;;;;;;5008483;28;100330;-71
2022/03/30 06:40:06;;;;;;;28.58;15.05;;;;;;;;;;5009784;28;98505;-71
2022/03/30 06:42:32;;;;;;;30.17;15.77;;;;;;;;;;5009605;28;100075;-71
2022/03/30 06:44:58;;;;;;;46.00;17.25;;;;;;;;;;5009718;28;99066;-71
2022/03/30 06:47:25;;;;;;;31.95;15.85;;;;;;;;;;5009350;28;98585;-70
2022/03/30 06:49:51;;;;;;;40.47;16.60;;;;;;;;;;5012959;28;100282;-71
2022/03/30 06:52:18;;;;;;;27.67;15.27;;;;;;;;;;5008848;28;99271;-71
2022/03/30 06:54:44;;;;;;;36.60;16.05;;;;;;;;;;5009166;28;99954;-71
2022/03/30 06:57:11;;;;;;;27.23;15.55;;;;;;;;;;5009348;28;99372;-71
2022/03/30 06:59:37;;;;;;;33.72;15.02;;;;;;;;;;5009443;28;98622;-71
2022/03/30 07:02:04;;;;;;;34.33;16.02;;;;;;;;;;5009980;28;99606;-71
2022/03/30 07:04:31;;;;;;;28.58;16.20;;;;;;;;;;5009143;28;99418;-71
2022/03/30 07:12:27;;;;;;;35.22;13.90;;;;;;;;;;5009068;28;98601;-71
2022/03/30 07:14:54;;;;;;;28.70;13.65;;;;;;;;;;5009120;28;100323;-71
2022/03/30 07:17:20;;;;;;;31.42;14.48;;;;;;;;;;5007944;28;101020;-71
2022/03/30 07:19:46;;;;;;;29.73;13.60;;;;;;;;;;5008836;28;98495;-71
2022/03/30 07:22:13;;;;;;;32.38;15.00;;;;;;;;;;5008880;28;99643;-72
2022/03/30 07:24:40;;;;;;;27.50;14.88;;;;;;;;;;5008919;28;100306;-71
2022/03/30 07:27:07;;;;;;;27.67;14.75;;;;;;;;;;5008629;28;98944;-71
2022/03/30 07:29:33;;;;;;;34.15;13.80;;;;;;;;;;5009028;28;100451;-71
2022/03/30 07:31:59;;;;;;;27.95;13.50;;;;;;;;;;5012164;28;100206;-71
2022/03/30 07:34:26;;;;;;;30.80;14.65;;;;;;;;;;5008949;28;98962;-71
2022/03/30 07:36:52;;;;;;;23.52;14.13;;;;;;;;;;5008986;28;99968;-71
2022/03/30 07:39:18;;;;;;;32.45;15.10;;;;;;;;;;5009195;28;99169;-71
2022/03/30 07:41:45;;;;;;;25.17;13.20;;;;;;;;;;5008425;28;99359;-71
2022/03/30 07:44:11;;;;;;;29.65;14.35;;;;;;;;;;5008517;28;100126;-71
2022/03/30 07:46:38;;;;;;;29.15;13.60;;;;;;;;;;5008930;28;98631;-71
2022/03/30 07:49:05;;;;;;;28.02;13.63;;;;;;;;;;5006741;28;99244;-71
2022/03/30 07:51:31;;;;;;;22.92;12.13;;;;;;;;;;5008409;28;100555;-71
2022/03/30 07:53:57;;;;;;;27.33;12.85;;;;;;;;;;5012291;28;99128;-71
2022/03/30 07:56:25;;;;;;;27.27;12.32;;;;;;;;;;5007299;28;100166;-71
2022/03/30 07:58:53;;;;;;;26.17;13.40;;;;;;;;;;5009335;28;97733;-71
2022/03/30 08:01:20;;;;;;;24.02;13.70;;;;;;;;;;5008439;28;99280;-71
2022/03/30 08:03:46;;;;;;;26.80;14.25;;;;;;;;;;5007830;28;100392;-71
2022/03/30 08:06:13;;;;;;;22.27;13.35;;;;;;;;;;5007852;28;99358;-71
2022/03/30 08:08:39;;;;;;;28.63;13.85;;;;;;;;;;5008342;28;100691;-71
2022/03/30 08:11:05;;;;;;;22.23;12.55;;;;;;;;;;5007850;28;99781;-71
2022/03/30 08:13:32;;;;;;;26.73;13.48;;;;;;;;;;5007964;28;98679;-71
2022/03/30 08:15:58;;;;;;;24.00;14.38;;;;;;;;;;5010710;28;99185;-71
2022/03/30 08:18:24;;;;;;;25.35;14.75;;;;;;;;;;5008222;28;98533;-71
2022/03/30 08:23:36;;;;;;;26.08;14.32;;;;;;;;;;5008030;28;99458;-71
2022/03/30 08:26:03;;;;;;;27.00;14.93;;;;;;;;;;5008754;28;98554;-71
2022/03/30 08:28:29;;;;;;;18.05;12.35;;;;;;;;;;5008011;28;99350;-71
2022/03/30 08:30:55;;;;;;;21.83;14.55;;;;;;;;;;5006875;28;101021;-71
2022/03/30 08:33:26;;;;;;;27.98;14.93;;;;;;;;;;5008148;28;98522;-71
2022/03/30 08:35:53;;;;;;;23.27;13.65;;;;;;;;;;5008539;28;99366;-71
2022/03/30 08:38:20;;;;;;;23.35;14.93;;;;;;;;;;5010223;28;100244;-71
2022/03/30 08:40:46;;;;;;;20.05;11.02;;;;;;;;;;5008472;28;99119;-71
2022/03/30 08:43:13;;;;;;;24.02;13.32;;;;;;;;;;5007247;28;100187;-71
2022/03/30 08:45:40;;;;;;;19.85;11.70;;;;;;;;;;5007953;28;98682;-71
2022/03/30 08:48:07;;;;;;;17.67;10.60;;;;;;;;;;5008522;28;100067;-71
2022/03/30 08:50:33;;;;;;;17.63;11.55;;;;;;;;;;5007815;28;99476;-71
2022/03/30 08:53:03;;;;;;;21.00;9.80;;;;;;;;;;5007223;28;98747;-71
2022/03/30 08:55:31;;;;;;;19.50;11.70;;;;;;;;;;5008075;28;99493;-71
2022/03/30 08:57:57;;;;;;;20.25;12.30;;;;;;;;;;5007553;28;99477;-71
2022/03/30 09:00:25;;;;;;;16.90;10.68;;;;;;;;;;5010933;28;99566;-71
2022/03/30 09:03:00;;;;;;;20.25;10.48;;;;;;;;;;5007387;28;99687;-71
2022/03/30 09:05:29;;;;;;;9.03;8.03;;;;;;;;;;5006355;28;99273;-71
2022/03/30 09:08:07;;;;;;;16.38;9.82;;;;;;;;;;5007381;28;100086;-71
2022/03/30 09:10:35;;;;;;;11.23;7.93;;;;;;;;;;5007780;28;100433;-71
2022/03/30 09:13:02;;;;;;;12.20;9.02;;;;;;;;;;5008442;28;97949;-71
2022/03/30 09:15:29;;;;;;;11.52;7.53;;;;;;;;;;5008466;28;99097;-72
2022/03/30 09:17:56;;;;;;;11.25;7.18;;;;;;;;;;5007541;28;100262;-72
2022/03/30 09:20:23;;;;;;;13.63;9.60;;;;;;;;;;5009845;28;100947;-72
2022/03/30 09:22:52;;;;;;;14.93;8.65;;;;;;;;;;5008065;28;100224;-71
2022/03/30 09:25:42;;;;;;;12.35;8.25;;;;;;;;;;5008445;28;98522;-72
2022/03/30 09:28:09;;;;;;;19.48;10.05;;;;;;;;;;5007682;28;99595;-71
2022/03/30 09:30:36;;;;;;;11.93;9.40;;;;;;;;;;5007003;28;100327;-71
2022/03/30 09:33:02;;;;;;;15.00;9.38;;;;;;;;;;5007900;28;98626;-72
2022/03/30 09:35:31;;;;;;;9.85;8.25;;;;;;;;;;5006678;28;99971;-71
2022/03/30 09:38:06;;;;;;;11.55;8.77;;;;;;;;;;5008092;28;99526;-72
2022/03/30 09:40:33;;;;;;;11.55;8.82;;;;;;;;;;5007259;28;98574;-72
2022/03/30 09:43:13;;;;;;;15.27;8.70;;;;;;;;;;5011401;28;99385;-72
2022/03/30 09:45:40;;;;;;;10.68;7.20;;;;;;;;;;5007749;28;99306;-72
2022/03/30 09:48:32;;;;;;;5.35;4.82;;;;;;;;;;5007594;28;99895;-72
2022/03/30 09:50:59;;;;;;;9.63;6.28;;;;;;;;;;5007185;28;100517;-72
2022/03/30 09:53:27;;;;;;;8.43;5.95;;;;;;;;;;5007510;28;98526;-72
2022/03/30 09:55:53;;;;;;;9.65;6.10;;;;;;;;;;5007059;28;99248;-72
2022/03/30 09:58:23;;;;;;;8.18;7.32;;;;;;;;;;5007124;28;100474;-71
2022/03/30 10:01:09;;;;;;;12.27;7.28;;;;;;;;;;5007811;28;98519;-72
2022/03/30 10:03:36;;;;;;;5.60;5.10;;;;;;;;;;5007804;28;99680;-72
2022/03/30 10:06:03;;;;;;;6.50;5.78;;;;;;;;;;5010598;28;100748;-72
2022/03/30 10:08:31;;;;;;;7.97;5.63;;;;;;;;;;5006054;28;99013;-72
2022/03/30 10:10:58;;;;;;;6.07;4.90;;;;;;;;;;5006934;28;100137;-72
2022/03/30 10:13:24;;;;;;;7.05;5.07;;;;;;;;;;5010778;28;98642;-72
2022/03/30 10:15:52;;;;;;;6.72;6.00;;;;;;;;;;5010281;28;99739;-72
2022/03/30 10:18:19;;;;;;;6.53;4.80;;;;;;;;;;5010352;28;100281;-72
2022/03/30 10:20:50;;;;;;;8.40;4.68;;;;;;;;;;5010434;28;98565;-72
2022/03/30 10:23:30;;;;;;;5.65;4.90;;;;;;;;;;5010153;28;99953;-72
2022/03/30 10:26:03;;;;;;;5.65;4.57;;;;;;;;;;5010618;28;100168;-72
2022/03/30 10:28:29;;;;;;;;;;;;;;;;;;5015191;28;97845;-72
2022/03/30 10:30:57;;;;;;;5.22;4.72;;;;;;;;;;5010140;28;129879;-72
2022/03/30 10:33:32;;;;;;;5.93;3.67;;;;;;;;;;5010661;28;98684;-72
2022/03/30 10:36:14;;;;;;;4.20;3.90;;;;;;;;;;5010591;28;99881;-72
2022/03/30 10:39:01;;;;;;;3.95;3.60;;;;;;;;;;5010139;28;99629;-72
2022/03/30 10:42:07;;;;;;;5.95;3.28;;;;;;;;;;5011154;28;98802;-72
2022/03/30 10:44:35;;;;;;;4.60;3.15;;;;;;;;;;5009234;28;100230;-72
2022/03/30 10:47:16;;;;;;;4.32;3.72;;;;;;;;;;5010724;28;99683;-72
2022/03/30 10:49:45;;;;;;;3.92;2.40;;;;;;;;;;5010644;28;99404;-72
2022/03/30 10:52:24;;;;;;;3.67;2.53;;;;;;;;;;5011992;28;99992;-72
2022/03/30 10:54:55;;;;;;;4.82;2.95;;;;;;;;;;5010603;28;97880;-72
2022/03/30 10:57:42;;;;;;;4.60;2.75;;;;;;;;;;5010303;28;98599;-72
2022/03/30 11:00:15;;;;;;;2.45;2.28;;;;;;;;;;5009932;28;100640;-72
2022/03/30 11:02:42;;;;;;;3.20;2.90;;;;;;;;;;5009698;28;99383;-72
2022/03/30 11:05:15;;;;;;;2.60;2.45;;;;;;;;;;5009820;28;100704;-72
2022/03/30 11:07:42;;;;;;;5.05;2.83;;;;;;;;;;5009356;28;99809;-72
2022/03/30 11:10:16;;;;;;;2.35;2.25;;;;;;;;;;5009581;28;99470;-72
2022/03/30 11:12:58;;;;;;;3.13;2.40;;;;;;;;;;5009642;28;100296;-72
2022/03/30 11:15:25;;;;;;;4.40;2.65;;;;;;;;;;5012770;28;100282;-72
2022/03/30 11:17:51;;;;;;;2.35;2.15;;;;;;;;;;5010399;28;99897;-72
2022/03/30 11:20:19;;;;;;;3.05;2.70;;;;;;;;;;5009557;28;99523;-72
2022/03/30 11:22:46;;;;;;;6.60;2.90;;;;;;;;;;5010044;28;98544;-72
2022/03/30 11:25:17;;;;;;;7.57;2.15;;;;;;;;;;5009900;28;100339;-72
2022/03/30 11:27:45;;;;;;;2.10;1.90;;;;;;;;;;5009054;28;100796;-72
2022/03/30 11:30:13;;;;;;;4.38;2.05;;;;;;;;;;5009730;28;98563;-72
2022/03/30 11:32:51;;;;;;;8.30;2.53;;;;;;;;;;5009960;28;99993;-72
2022/03/30 11:35:19;;;;;;;2.65;2.00;;;;;;;;;;5012438;28;100176;-72
2022/03/30 11:37:53;;;;;;;1.83;1.73;;;;;;;;;;5009926;28;99902;-72
2022/03/30 11:40:21;;;;;;;4.13;1.80;;;;;;;;;;5008185;28;99362;-72
2022/03/30 11:42:47;;;;;;;3.42;2.03;;;;;;;;;;5009738;28;98566;-72
2022/03/30 11:45:15;;;;;;;2.42;1.80;;;;;;;;;;5010035;28;100026;-72
2022/03/30 11:47:43;;;;;;;4.82;1.40;;;;;;;;;;5008560;28;99089;-72
2022/03/30 11:50:20;;;;;;;3.60;1.80;;;;;;;;;;5009880;28;99943;-72
2022/03/30 11:52:54;;;;;;;1.85;1.70;;;;;;;;;;5009074;28;99942;-72
2022/03/30 11:55:21;;;;;;;2.33;1.80;;;;;;;;;;5008163;28;99733;-71
2022/03/30 11:57:49;;;;;;;2.25;1.50;;;;;;;;;;5013476;28;99176;-72
2022/03/30 12:00:16;;;;;;;1.77;1.50;;;;;;;;;;5008737;28;100484;-72
2022/03/30 12:02:43;;;;;;;5.55;1.52;;;;;;;;;;5008830;28;98559;-72
2022/03/30 12:05:10;;;;;;;2.20;1.75;;;;;;;;;;5008875;28;99971;-72
2022/03/30 12:07:38;;;;;;;1.63;1.52;;;;;;;;;;5008692;28;99901;-72
2022/03/30 12:10:11;;;;;;;2.25;1.15;;;;;;;;;;5008844;28;97907;-72
2022/03/30 12:12:40;;;;;;;2.40;1.30;;;;;;;;;;5009403;28;99240;-72
2022/03/30 12:15:06;;;;;;;3.17;2.88;;;;;;;;;;5008406;28;101085;-72
2022/03/30 12:17:34;;;;;;;1.85;1.75;;;;;;;;;;5008355;28;99263;-72
2022/03/30 12:20:01;;;;;;;1.58;1.40;;;;;;;;;;5011705;28;100588;-72
2022/03/30 12:22:28;;;;;;;2.35;1.67;;;;;;;;;;5008228;28;98983;-72
2022/03/30 12:24:55;;;;;;;2.38;1.48;;;;;;;;;;5009198;28;99965;-72
2022/03/30 12:27:22;;;;;;;2.70;1.60;;;;;;;;;;5008099;28;100329;-72
2022/03/30 12:29:53;;;;;;;4.18;1.95;;;;;;;;;;5008610;28;98982;-72
2022/03/30 12:32:23;;;;;;;3.53;1.63;;;;;;;;;;5008952;28;100207;-72
2022/03/30 12:34:50;;;;;;;13.40;1.98;;;;;;;;;;5007637;28;99480;-72
2022/03/30 12:37:22;;;;;;;2.55;1.90;;;;;;;;;;5007799;28;98546;-72
2022/03/30 12:39:49;;;;;;;5.50;2.22;;;;;;;;;;5008568;28;99958;-72
2022/03/30 12:42:25;;;;;;;1.52;1.52;;;;;;;;;;5010753;28;101027;-71
2022/03/30 12:44:52;;;;;;;1.80;1.50;;;;;;;;;;5008260;28;99856;-71
2022/03/30 12:47:25;;;;;;;5.07;1.50;;;;;;;;;;5008468;28;99261;-71
2022/03/30 12:49:52;;;;;;;2.38;1.80;;;;;;;;;;5009205;28;98533;-70
2022/03/30 12:52:20;;;;;;;5.18;1.40;;;;;;;;;;5008210;28;98973;-71
2022/03/30 12:54:47;;;;;;;2.75;2.40;;;;;;;;;;5008047;28;100252;-70
2022/03/30 12:57:26;;;;;;;2.08;1.60;;;;;;;;;;5007871;28;99933;-70
2022/03/30 12:59:53;;;;;;;3.53;2.15;;;;;;;;;;5009233;28;100186;-70
2022/03/30 13:02:21;;;;;;;4.68;1.73;;;;;;;;;;5007832;28;99948;-70
2022/03/30 13:04:48;;;;;;;2.20;1.92;;;;;;;;;;5011511;28;99834;-70
2022/03/30 13:07:16;;;;;;;7.30;1.70;;;;;;;;;;5007322;28;101048;-70
2022/03/30 13:10:01;;;;;;;3.90;1.92;;;;;;;;;;5007922;28;99206;-70
2022/03/30 13:12:31;;;;;;;2.05;1.90;;;;;;;;;;5007899;28;99278;-70
2022/03/30 13:15:04;;;;;;;1.90;1.77;;;;;;;;;;5008012;28;100971;-70
2022/03/30 13:17:31;;;;;;;2.00;1.80;;;;;;;;;;5008004;28;98573;-71
2022/03/30 13:19:59;;;;;;;3.08;1.73;;;;;;;;;;5007702;28;99234;-71
2022/03/30 13:22:26;;;;;;;2.28;1.60;;;;;;;;;;5007629;28;100628;-71
2022/03/30 13:24:54;;;;;;;2.95;1.83;;;;;;;;;;5008769;28;98513;-71
2022/03/30 13:27:21;;;;;;;5.72;1.90;;;;;;;;;;5010322;28;99027;-71
2022/03/30 13:29:47;;;;;;;1.73;1.60;;;;;;;;;;5008186;28;98485;-71
2022/03/30 13:32:14;;;;;;;3.08;1.83;;;;;;;;;;5007658;28;100078;-71
2022/03/30 13:34:41;;;;;;;2.78;1.60;;;;;;;;;;5006911;28;99843;-71
2022/03/30 13:37:07;;;;;;;2.45;2.00;;;;;;;;;;5008090;28;99054;-71
2022/03/30 13:39:33;;;;;;;3.42;1.52;;;;;;;;;;5006474;28;100001;-72
2022/03/30 13:42:01;;;;;;;2.90;1.70;;;;;;;;;;5007492;28;100468;-72
2022/03/30 13:44:27;;;;;;;3.10;1.90;;;;;;;;;;5008138;28;98510;-72
2022/03/30 13:46:54;;;;;;;1.67;1.58;;;;;;;;;;5011749;28;100136;-72
2022/03/30 13:49:40;;;;;;;2.30;1.80;;;;;;;;;;5011315;28;97777;-70
2022/03/30 13:52:07;;;;;;;2.60;1.80;;;;;;;;;;5011126;28;99074;-72
2022/03/30 13:54:33;;;;;;;2.13;1.63;;;;;;;;;;5010318;28;100238;-72
2022/03/30 13:57:00;;;;;;;3.20;1.83;;;;;;;;;;5011059;28;99404;-72
2022/03/30 13:59:26;;;;;;;3.30;1.75;;;;;;;;;;5010974;28;100651;-72
2022/03/30 14:01:52;;;;;;;3.63;2.35;;;;;;;;;;5010213;28;100134;-70
2022/03/30 14:04:21;;;;;;;3.67;1.70;;;;;;;;;;5011164;28;98543;-71
2022/03/30 14:06:47;;;;;;;2.08;1.90;;;;;;;;;;5011203;28;98925;-72
2022/03/30 14:09:13;;;;;;;2.20;1.98;;;;;;;;;;5012775;28;100147;-72
2022/03/30 14:11:40;;;;;;;1.73;1.63;;;;;;;;;;5010959;28;100003;-70
2022/03/30 14:14:06;;;;;;;1.95;1.52;;;;;;;;;;5011491;28;99204;-70
2022/03/30 14:16:32;;;;;;;1.95;1.80;;;;;;;;;;5010070;28;98597;-70
2022/03/30 14:19:04;;;;;;;1.92;1.80;;;;;;;;;;5011073;28;99902;-70
2022/03/30 14:21:31;;;;;;;2.17;1.98;;;;;;;;;;5009570;28;100351;-70
2022/03/30 14:23:57;;;;;;;3.05;1.67;;;;;;;;;;5010735;28;98532;-70
2022/03/30 14:26:23;;;;;;;2.03;1.60;;;;;;;;;;5010338;28;99256;-70
2022/03/30 14:28:50;;;;;;;1.88;1.77;;;;;;;;;;5009714;28;100288;-70
2022/03/30 14:31:16;;;;;;;4.55;1.60;;;;;;;;;;5013866;28;98662;-70
2022/03/30 14:33:43;;;;;;;3.13;1.50;;;;;;;;;;5010424;28;100374;-70
2022/03/30 14:36:09;;;;;;;5.00;1.83;;;;;;;;;;5009725;28;98914;-70
2022/03/30 14:38:35;;;;;;;17.70;2.20;;;;;;;;;;5011427;28;99277;-70